sensor_id;sensor_type;location;lat;lon;timestamp;pressure;altitude;pressure_sealevel;temperature;humidity
57606;BME280;43430;48.204;11.556;2023-05-23T00:01:33;95706.84;;;15.72;100.00
57606;BME280;43430;48.204;11.556;2023-05-23T00:04:01;95701.00;;;15.70;100.00
57606;BME280;43430;48.204;11.556;2023-05-23T00:06:27;95695.16;;;15.73;100.00
57606;BME280;43430;48.204;11.556;2023-05-23T00:08:52;95704.72;;;15.74;100.00
57606;BME280;43430;48.204;11.556;2023-05-23T00:11:17;95702.06;;;15.74;100.00
57606;BME280;43430;48.204;11.556;2023-05-23T00:13:44;95702.06;;;15.69;100.00
57606;BME280;43430;48.204;11.556;2023-05-23T00:16:10;95708.97;;;15.75;100.00
57606;BME280;43430;48.204;11.556;2023-05-23T00:18:36;95700.47;;;15.73;100.00
57606;BME280;43430;48.204;11.556;2023-05-23T00:21:01;95703.66;;;15.75;100.00
57606;BME280;43430;48.204;11.556;2023-05-23T00:23:28;95708.72;;;15.77;100.00
57606;BME280;43430;48.204;11.556;2023-05-23T00:25:54;95703.69;;;15.80;100.00
57606;BME280;43430;48.204;11.556;2023-05-23T00:28:20;95698.94;;;15.87;100.00
57606;BME280;43430;48.204;11.556;2023-05-23T00:30:46;95703.22;;;15.94;100.00
57606;BME280;43430;48.204;11.556;2023-05-23T00:33:13;95703.44;;;15.92;100.00
57606;BME280;43430;48.204;11.556;2023-05-23T00:35:42;95694.44;;;15.98;100.00
57606;BME280;43430;48.204;11.556;2023-05-23T00:38:07;95700.53;;;15.94;100.00
57606;BME280;43430;48.204;11.556;2023-05-23T00:40:33;95695.75;;;15.96;100.00
57606;BME280;43430;48.204;11.556;2023-05-23T00:42:59;95699.22;;;16.01;100.00
57606;BME280;43430;48.204;11.556;2023-05-23T00:45:25;95693.91;;;16.01;100.00
57606;BME280;43430;48.204;11.556;2023-05-23T00:47:51;95691.25;;;16.06;100.00
57606;BME280;43430;48.204;11.556;2023-05-23T00:50:17;95691.00;;;16.08;100.00
57606;BME280;43430;48.204;11.556;2023-05-23T00:52:44;95692.03;;;16.02;100.00
57606;BME280;43430;48.204;11.556;2023-05-23T00:55:11;95693.66;;;16.08;100.00
57606;BME280;43430;48.204;11.556;2023-05-23T00:57:37;95687.78;;;16.01;100.00
57606;BME280;43430;48.204;11.556;2023-05-23T01:00:06;95690.69;;;15.99;100.00
57606;BME280;43430;48.204;11.556;2023-05-23T01:02:39;95693.91;;;16.01;100.00
57606;BME280;43430;48.204;11.556;2023-05-23T01:05:08;95697.38;;;15.97;100.00
57606;BME280;43430;48.204;11.556;2023-05-23T01:07:33;95693.91;;;16.01;100.00
57606;BME280;43430;48.204;11.556;2023-05-23T01:10:00;95693.94;;;16.11;100.00
57606;BME280;43430;48.204;11.556;2023-05-23T01:12:31;95694.44;;;16.08;100.00
57606;BME280;43430;48.204;11.556;2023-05-23T01:15:07;95699.47;;;16.00;100.00
57606;BME280;43430;48.204;11.556;2023-05-23T01:18:20;95704.53;;;16.06;100.00
57606;BME280;43430;48.204;11.556;2023-05-23T01:20:54;95703.47;;;15.97;100.00
57606;BME280;43430;48.204;11.556;2023-05-23T01:26:44;95706.63;;;15.89;100.00
57606;BME280;43430;48.204;11.556;2023-05-23T01:29:23;95709.28;;;15.84;100.00
57606;BME280;43430;48.204;11.556;2023-05-23T01:31:52;95714.56;;;15.79;100.00
57606;BME280;43430;48.204;11.556;2023-05-23T01:34:20;95702.94;;;15.90;100.00
57606;BME280;43430;48.204;11.556;2023-05-23T01:36:49;95705.56;;;15.80;100.00
57606;BME280;43430;48.204;11.556;2023-05-23T01:39:14;95714.84;;;15.82;100.00
57606;BME280;43430;48.204;11.556;2023-05-23T01:41:40;95714.56;;;15.74;100.00
57606;BME280;43430;48.204;11.556;2023-05-23T01:44:06;95715.63;;;15.73;100.00
57606;BME280;43430;48.204;11.556;2023-05-23T01:46:33;95714.84;;;15.77;100.00
57606;BME280;43430;48.204;11.556;2023-05-23T01:49:02;95714.84;;;15.77;100.00
57606;BME280;43430;48.204;11.556;2023-05-23T01:51:28;95722.50;;;15.69;100.00
57606;BME280;43430;48.204;11.556;2023-05-23T01:53:55;95734.41;;;15.56;100.00
57606;BME280;43430;48.204;11.556;2023-05-23T01:56:21;95735.19;;;15.56;100.00
57606;BME280;43430;48.204;11.556;2023-05-23T01:58:47;95732.25;;;15.58;100.00
57606;BME280;43430;48.204;11.556;2023-05-23T02:01:12;95739.66;;;15.46;100.00
57606;BME280;43430;48.204;11.556;2023-05-23T02:03:38;95745.50;;;15.42;100.00
57606;BME280;43430;48.204;11.556;2023-05-23T02:06:04;95743.06;;;15.36;100.00
57606;BME280;43430;48.204;11.556;2023-05-23T02:08:29;95744.13;;;15.35;100.00
57606;BME280;43430;48.204;11.556;2023-05-23T02:10:54;95747.88;;;15.44;100.00
57606;BME280;43430;48.204;11.556;2023-05-23T02:13:20;95748.38;;;15.41;100.00
57606;BME280;43430;48.204;11.556;2023-05-23T02:15:45;95739.66;;;15.46;100.00
57606;BME280;43430;48.204;11.556;2023-05-23T02:18:10;95740.41;;;15.41;100.00
57606;BME280;43430;48.204;11.556;2023-05-23T02:20:37;95741.44;;;15.30;100.00
57606;BME280;43430;48.204;11.556;2023-05-23T02:23:02;95734.81;;;15.32;100.00
57606;BME280;43430;48.204;11.556;2023-05-23T02:25:27;95740.94;;;15.38;100.00
57606;BME280;43430;48.204;11.556;2023-05-23T02:27:53;95744.91;;;15.35;100.00
57606;BME280;43430;48.204;11.556;2023-05-23T02:30:18;95739.31;;;15.32;100.00
57606;BME280;43430;48.204;11.556;2023-05-23T02:32:43;95745.38;;;15.27;100.00
57606;BME280;43430;48.204;11.556;2023-05-23T02:35:10;95751.97;;;15.14;100.00
57606;BME280;43430;48.204;11.556;2023-05-23T02:37:36;95744.50;;;15.11;100.00
57606;BME280;43430;48.204;11.556;2023-05-23T02:40:01;95752.94;;;15.03;100.00
57606;BME280;43430;48.204;11.556;2023-05-23T02:42:27;95756.66;;;15.02;100.00
57606;BME280;43430;48.204;11.556;2023-05-23T02:44:52;95764.88;;;15.01;100.00
57606;BME280;43430;48.204;11.556;2023-05-23T02:47:18;95756.34;;;14.99;100.00
57606;BME280;43430;48.204;11.556;2023-05-23T02:49:43;95773.06;;;14.94;100.00
57606;BME280;43430;48.204;11.556;2023-05-23T02:52:08;95768.00;;;14.92;100.00
57606;BME280;43430;48.204;11.556;2023-05-23T02:54:34;95766.69;;;14.95;100.00
57606;BME280;43430;48.204;11.556;2023-05-23T02:56:59;95778.09;;;14.95;100.00
57606;BME280;43430;48.204;11.556;2023-05-23T02:59:25;95773.09;;;14.99;100.00
57606;BME280;43430;48.204;11.556;2023-05-23T03:01:50;95765.13;;;14.99;100.00
57606;BME280;43430;48.204;11.556;2023-05-23T03:04:16;95768.00;;;14.92;100.00
57606;BME280;43430;48.204;11.556;2023-05-23T03:06:42;95768.00;;;14.92;100.00
57606;BME280;43430;48.204;11.556;2023-05-23T03:09:09;95766.97;;;14.99;100.00
57606;BME280;43430;48.204;11.556;2023-05-23T03:11:35;95770.91;;;14.91;100.00
57606;BME280;43430;48.204;11.556;2023-05-23T03:14:00;95778.59;;;14.87;100.00
57606;BME280;43430;48.204;11.556;2023-05-23T03:16:26;95778.28;;;14.84;100.00
57606;BME280;43430;48.204;11.556;2023-05-23T03:18:51;95779.13;;;14.89;100.00
57606;BME280;43430;48.204;11.556;2023-05-23T03:21:16;95782.81;;;14.83;100.00
57606;BME280;43430;48.204;11.556;2023-05-23T03:23:42;95779.84;;;14.80;100.00
57606;BME280;43430;48.204;11.556;2023-05-23T03:26:07;95780.34;;;14.77;100.00
57606;BME280;43430;48.204;11.556;2023-05-23T03:28:32;95783.59;;;14.84;100.00
57606;BME280;43430;48.204;11.556;2023-05-23T03:30:58;95783.53;;;14.79;100.00
57606;BME280;43430;48.204;11.556;2023-05-23T03:33:23;95790.75;;;14.83;100.00
57606;BME280;43430;48.204;11.556;2023-05-23T03:35:49;95789.72;;;14.84;100.00
57606;BME280;43430;48.204;11.556;2023-05-23T03:38:14;95783.69;;;14.94;100.00
57606;BME280;43430;48.204;11.556;2023-05-23T03:40:40;95785.00;;;14.96;100.00
57606;BME280;43430;48.204;11.556;2023-05-23T03:43:05;95782.63;;;14.95;100.00
57606;BME280;43430;48.204;11.556;2023-05-23T03:45:31;95781.47;;;14.86;100.00
57606;BME280;43430;48.204;11.556;2023-05-23T03:47:58;95790.53;;;14.90;100.00
57606;BME280;43430;48.204;11.556;2023-05-23T03:50:23;95793.19;;;14.90;100.00
57606;BME280;43430;48.204;11.556;2023-05-23T03:52:48;95797.41;;;14.86;100.00
57606;BME280;43430;48.204;11.556;2023-05-23T03:55:14;95803.22;;;14.83;100.00
57606;BME280;43430;48.204;11.556;2023-05-23T03:57:39;95802.91;;;14.79;100.00
57606;BME280;43430;48.204;11.556;2023-05-23T04:00:05;95797.09;;;14.82;100.00
57606;BME280;43430;48.204;11.556;2023-05-23T04:02:36;95799.25;;;14.85;100.00
57606;BME280;43430;48.204;11.556;2023-05-23T04:05:01;95798.47;;;14.85;100.00
57606;BME280;43430;48.204;11.556;2023-05-23T04:07:27;95804.84;;;14.84;100.00
57606;BME280;43430;48.204;11.556;2023-05-23T04:09:52;95802.69;;;14.81;100.00
57606;BME280;43430;48.204;11.556;2023-05-23T04:12:18;95800.75;;;14.76;100.00
57606;BME280;43430;48.204;11.556;2023-05-23T04:14:43;95804.88;;;14.89;100.00
57606;BME280;43430;48.204;11.556;2023-05-23T04:17:09;95803.34;;;14.98;100.00
57606;BME280;43430;48.204;11.556;2023-05-23T04:19:34;95809.84;;;15.12;100.00
57606;BME280;43430;48.204;11.556;2023-05-23T04:22:00;95809.41;;;15.26;100.00
57606;BME280;43430;48.204;11.556;2023-05-23T04:24:25;95811.66;;;15.44;100.00
57606;BME280;43430;48.204;11.556;2023-05-23T04:26:50;95803.94;;;15.42;100.00
57606;BME280;43430;48.204;11.556;2023-05-23T04:29:16;95805.38;;;15.60;100.00
57606;BME280;43430;48.204;11.556;2023-05-23T04:31:41;95801.53;;;15.41;100.00
57606;BME280;43430;48.204;11.556;2023-05-23T04:34:09;95813.25;;;15.45;100.00
57606;BME280;43430;48.204;11.556;2023-05-23T04:36:35;95815.38;;;15.43;100.00
57606;BME280;43430;48.204;11.556;2023-05-23T04:39:03;95818.81;;;15.38;100.00
57606;BME280;43430;48.204;11.556;2023-05-23T04:41:29;95813.50;;;15.38;100.00
57606;BME280;43430;48.204;11.556;2023-05-23T04:43:55;95825.78;;;15.55;100.00
57606;BME280;43430;48.204;11.556;2023-05-23T04:46:22;95820.19;;;15.51;100.00
57606;BME280;43430;48.204;11.556;2023-05-23T04:48:53;95819.47;;;15.61;100.00
57606;BME280;43430;48.204;11.556;2023-05-23T04:51:19;95820.25;;;15.61;100.00
57606;BME280;43430;48.204;11.556;2023-05-23T04:53:47;95812.97;;;15.89;100.00
57606;BME280;43430;48.204;11.556;2023-05-23T04:56:12;95821.13;;;15.72;100.00
57606;BME280;43430;48.204;11.556;2023-05-23T04:58:37;95827.13;;;15.95;100.00
57606;BME280;43430;48.204;11.556;2023-05-23T05:01:04;95825.06;;;16.12;100.00
57606;BME280;43430;48.204;11.556;2023-05-23T05:03:30;95818.66;;;16.13;100.00
57606;BME280;43430;48.204;11.556;2023-05-23T05:05:56;95816.88;;;16.29;100.00
57606;BME280;43430;48.204;11.556;2023-05-23T05:08:21;95829.16;;;16.40;100.00
57606;BME280;43430;48.204;11.556;2023-05-23T05:10:47;95820.66;;;16.53;100.00
57606;BME280;43430;48.204;11.556;2023-05-23T05:13:13;95817.94;;;16.28;100.00
57606;BME280;43430;48.204;11.556;2023-05-23T05:15:38;95818.22;;;16.36;100.00
57606;BME280;43430;48.204;11.556;2023-05-23T05:18:03;95824.88;;;16.44;100.00
57606;BME280;43430;48.204;11.556;2023-05-23T05:20:28;95819.81;;;16.37;100.00
57606;BME280;43430;48.204;11.556;2023-05-23T05:22:55;95826.00;;;16.48;100.00
57606;BME280;43430;48.204;11.556;2023-05-23T05:25:21;95812.69;;;16.64;100.00
57606;BME280;43430;48.204;11.556;2023-05-23T05:27:47;95809.81;;;16.80;100.00
57606;BME280;43430;48.204;11.556;2023-05-23T05:30:12;95811.72;;;16.90;100.00
57606;BME280;43430;48.204;11.556;2023-05-23T05:32:38;95815.09;;;16.65;100.00
57606;BME280;43430;48.204;11.556;2023-05-23T05:35:04;95826.25;;;16.52;100.00
57606;BME280;43430;48.204;11.556;2023-05-23T05:37:29;95825.94;;;16.33;100.00
57606;BME280;43430;48.204;11.556;2023-05-23T05:39:55;95838.16;;;16.29;100.00
57606;BME280;43430;48.204;11.556;2023-05-23T05:42:21;95849.28;;;16.21;100.00
57606;BME280;43430;48.204;11.556;2023-05-23T05:44:47;95845.00;;;16.09;100.00
57606;BME280;43430;48.204;11.556;2023-05-23T05:47:13;95852.25;;;16.24;100.00
57606;BME280;43430;48.204;11.556;2023-05-23T05:49:38;95852.50;;;16.23;100.00
57606;BME280;43430;48.204;11.556;2023-05-23T05:52:06;95845.59;;;16.22;100.00
57606;BME280;43430;48.204;11.556;2023-05-23T05:54:31;95853.41;;;16.49;100.00
57606;BME280;43430;48.204;11.556;2023-05-23T05:56:57;95845.94;;;16.51;100.00
57606;BME280;43430;48.204;11.556;2023-05-23T05:59:22;95843.56;;;16.65;100.00
57606;BME280;43430;48.204;11.556;2023-05-23T06:01:48;95837.78;;;16.78;100.00
57606;BME280;43430;48.204;11.556;2023-05-23T06:04:15;95838.28;;;16.70;100.00
57606;BME280;43430;48.204;11.556;2023-05-23T06:06:41;95844.44;;;16.85;100.00
57606;BME280;43430;48.204;11.556;2023-05-23T06:09:06;95836.72;;;16.99;100.00
57606;BME280;43430;48.204;11.556;2023-05-23T06:11:32;95840.47;;;17.08;100.00
57606;BME280;43430;48.204;11.556;2023-05-23T06:13:57;95840.47;;;16.88;100.00
57606;BME280;43430;48.204;11.556;2023-05-23T06:16:23;95848.47;;;16.93;100.00
57606;BME280;43430;48.204;11.556;2023-05-23T06:18:48;95851.09;;;16.78;100.00
57606;BME280;43430;48.204;11.556;2023-05-23T06:21:13;95845.69;;;16.57;100.00
57606;BME280;43430;48.204;11.556;2023-05-23T06:23:39;95858.72;;;16.54;100.00
57606;BME280;43430;48.204;11.556;2023-05-23T06:26:04;95855.38;;;16.84;100.00
57606;BME280;43430;48.204;11.556;2023-05-23T06:28:34;95850.88;;;16.90;100.00
57606;BME280;43430;48.204;11.556;2023-05-23T06:31:00;95847.13;;;16.96;100.00
57606;BME280;43430;48.204;11.556;2023-05-23T06:33:26;95845.81;;;17.08;100.00
57606;BME280;43430;48.204;11.556;2023-05-23T06:35:52;95846.06;;;17.22;100.00
57606;BME280;43430;48.204;11.556;2023-05-23T06:38:17;95848.19;;;17.05;100.00
57606;BME280;43430;48.204;11.556;2023-05-23T06:40:43;95851.38;;;17.02;100.00
57606;BME280;43430;48.204;11.556;2023-05-23T06:43:08;95858.06;;;17.15;100.00
57606;BME280;43430;48.204;11.556;2023-05-23T06:45:33;95849.53;;;17.48;100.00
57606;BME280;43430;48.204;11.556;2023-05-23T06:48:00;95847.13;;;17.62;100.00
57606;BME280;43430;48.204;11.556;2023-05-23T06:50:25;95856.44;;;17.54;100.00
57606;BME280;43430;48.204;11.556;2023-05-23T06:52:51;95860.72;;;17.25;100.00
57606;BME280;43430;48.204;11.556;2023-05-23T06:55:16;95858.06;;;17.15;100.00
57606;BME280;43430;48.204;11.556;2023-05-23T06:57:43;95859.66;;;17.05;100.00
57606;BME280;43430;48.204;11.556;2023-05-23T07:00:09;95865.78;;;17.01;100.00
57606;BME280;43430;48.204;11.556;2023-05-23T07:02:35;95870.03;;;16.92;100.00
57606;BME280;43430;48.204;11.556;2023-05-23T07:05:01;95862.59;;;17.09;100.00
57606;BME280;43430;48.204;11.556;2023-05-23T07:07:26;95861.78;;;17.19;100.00
57606;BME280;43430;48.204;11.556;2023-05-23T07:09:51;95867.13;;;17.34;100.00
57606;BME280;43430;48.204;11.556;2023-05-23T07:12:17;95864.44;;;17.24;100.00
57606;BME280;43430;48.204;11.556;2023-05-23T07:14:42;95874.84;;;17.20;100.00
57606;BME280;43430;48.204;11.556;2023-05-23T07:17:07;95887.63;;;17.08;100.00
57606;BME280;43430;48.204;11.556;2023-05-23T07:19:33;95882.59;;;17.32;100.00
57606;BME280;43430;48.204;11.556;2023-05-23T07:21:58;95881.78;;;17.16;100.00
57606;BME280;43430;48.204;11.556;2023-05-23T07:24:23;95886.56;;;17.40;100.00
57606;BME280;43430;48.204;11.556;2023-05-23T07:26:49;95892.72;;;17.25;100.00
57606;BME280;43430;48.204;11.556;2023-05-23T07:29:14;95880.72;;;17.32;100.00
57606;BME280;43430;48.204;11.556;2023-05-23T07:31:40;95886.31;;;17.46;100.00
57606;BME280;43430;48.204;11.556;2023-05-23T07:34:05;95879.66;;;17.33;100.00
57606;BME280;43430;48.204;11.556;2023-05-23T07:36:30;95880.97;;;17.51;100.00
57606;BME280;43430;48.204;11.556;2023-05-23T07:38:58;95887.09;;;17.47;100.00
57606;BME280;43430;48.204;11.556;2023-05-23T07:41:23;95889.78;;;17.31;100.00
57606;BME280;43430;48.204;11.556;2023-05-23T07:43:49;95886.84;;;17.38;100.00
57606;BME280;43430;48.204;11.556;2023-05-23T07:46:15;95878.06;;;17.32;100.00
57606;BME280;43430;48.204;11.556;2023-05-23T07:48:40;95882.06;;;17.25;100.00
57606;BME280;43430;48.204;11.556;2023-05-23T07:51:06;95877.75;;;17.65;100.00
57606;BME280;43430;48.204;11.556;2023-05-23T07:53:31;95885.25;;;17.63;100.00
57606;BME280;43430;48.204;11.556;2023-05-23T07:55:56;95884.19;;;17.69;100.00
57606;BME280;43430;48.204;11.556;2023-05-23T07:58:22;95877.78;;;17.60;100.00
57606;BME280;43430;48.204;11.556;2023-05-23T08:00:47;95883.38;;;17.53;100.00
57606;BME280;43430;48.204;11.556;2023-05-23T08:03:13;95887.91;;;17.47;100.00
57606;BME280;43430;48.204;11.556;2023-05-23T08:05:38;95885.25;;;17.42;100.00
57606;BME280;43430;48.204;11.556;2023-05-23T08:08:03;95886.31;;;17.26;100.00
57606;BME280;43430;48.204;11.556;2023-05-23T08:10:29;95898.84;;;17.56;100.00
57606;BME280;43430;48.204;11.556;2023-05-23T08:12:54;95893.78;;;17.60;100.00
57606;BME280;43430;48.204;11.556;2023-05-23T08:15:20;95887.91;;;17.63;100.00
57606;BME280;43430;48.204;11.556;2023-05-23T08:17:47;95888.69;;;17.38;100.00
57606;BME280;43430;48.204;11.556;2023-05-23T08:20:13;95895.88;;;17.17;100.00
57606;BME280;43430;48.204;11.556;2023-05-23T08:22:40;95899.09;;;17.03;100.00
57606;BME280;43430;48.204;11.556;2023-05-23T08:25:05;95897.50;;;17.07;100.00
57606;BME280;43430;48.204;11.556;2023-05-23T08:27:31;95900.69;;;17.30;100.00
57606;BME280;43430;48.204;11.556;2023-05-23T08:30:02;95900.19;;;17.28;100.00
57606;BME280;43430;48.204;11.556;2023-05-23T08:32:32;95898.31;;;17.49;100.00
57606;BME280;43430;48.204;11.556;2023-05-23T08:35:00;95901.25;;;17.32;100.00
57606;BME280;43430;48.204;11.556;2023-05-23T08:37:25;95903.38;;;17.35;100.00
57606;BME280;43430;48.204;11.556;2023-05-23T08:39:50;95904.72;;;17.53;100.00
57606;BME280;43430;48.204;11.556;2023-05-23T08:42:16;95899.66;;;17.77;100.00
57606;BME280;43430;48.204;11.556;2023-05-23T08:44:41;95898.59;;;17.83;100.00
57606;BME280;43430;48.204;11.556;2023-05-23T08:47:07;95893.25;;;17.83;100.00
57606;BME280;43430;48.204;11.556;2023-05-23T08:49:33;95891.59;;;18.08;100.00
57606;BME280;43430;48.204;11.556;2023-05-23T08:52:01;95899.03;;;18.16;100.00
57606;BME280;43430;48.204;11.556;2023-05-23T08:54:28;95891.34;;;17.99;100.00
57606;BME280;43430;48.204;11.556;2023-05-23T08:56:53;95895.88;;;17.98;100.00
57606;BME280;43430;48.204;11.556;2023-05-23T08:59:20;95898.03;;;17.91;100.00
57606;BME280;43430;48.204;11.556;2023-05-23T09:01:47;95910.03;;;17.78;100.00
57606;BME280;43430;48.204;11.556;2023-05-23T09:04:14;95905.50;;;17.94;100.00
57606;BME280;43430;48.204;11.556;2023-05-23T09:06:39;95903.63;;;18.00;100.00
57606;BME280;43430;48.204;11.556;2023-05-23T09:09:05;95909.44;;;18.12;100.00
57606;BME280;43430;48.204;11.556;2023-05-23T09:11:31;95907.03;;;18.21;100.00
57606;BME280;43430;48.204;11.556;2023-05-23T09:13:58;95897.94;;;18.17;100.00
57606;BME280;43430;48.204;11.556;2023-05-23T09:16:31;95906.25;;;18.05;100.00
57606;BME280;43430;48.204;11.556;2023-05-23T09:18:57;95894.75;;;18.25;100.00
57606;BME280;43430;48.204;11.556;2023-05-23T09:21:23;95894.41;;;18.42;100.00
57606;BME280;43430;48.204;11.556;2023-05-23T09:23:49;95890.44;;;18.29;100.00
57606;BME280;43430;48.204;11.556;2023-05-23T09:26:14;95891.97;;;18.50;100.00
57606;BME280;43430;48.204;11.556;2023-05-23T09:28:42;95902.13;;;18.43;100.00
57606;BME280;43430;48.204;11.556;2023-05-23T09:31:07;95904.06;;;18.38;100.00
57606;BME280;43430;48.204;11.556;2023-05-23T09:33:45;95907.00;;;18.26;100.00
57606;BME280;43430;48.204;11.556;2023-05-23T09:36:14;95912.69;;;18.04;100.00
57606;BME280;43430;48.204;11.556;2023-05-23T09:38:42;95918.31;;;17.82;100.00
57606;BME280;43430;48.204;11.556;2023-05-23T09:41:08;95919.38;;;17.81;100.00
57606;BME280;43430;48.204;11.556;2023-05-23T09:43:37;95926.84;;;17.84;100.00
57606;BME280;43430;48.204;11.556;2023-05-23T09:46:08;95925.78;;;17.80;100.00
57606;BME280;43430;48.204;11.556;2023-05-23T09:48:34;95917.75;;;17.75;100.00
57606;BME280;43430;48.204;11.556;2023-05-23T09:51:09;95913.75;;;17.98;100.00
57606;BME280;43430;48.204;11.556;2023-05-23T09:53:34;95926.56;;;17.86;100.00
57606;BME280;43430;48.204;11.556;2023-05-23T09:56:01;95919.63;;;17.85;100.00
57606;BME280;43430;48.204;11.556;2023-05-23T09:58:28;95920.47;;;17.80;100.00
57606;BME280;43430;48.204;11.556;2023-05-23T10:00:58;95920.69;;;17.73;100.00
57606;BME280;43430;48.204;11.556;2023-05-23T10:03:34;95921.50;;;17.74;100.00
57606;BME280;43430;48.204;11.556;2023-05-23T10:06:11;95919.38;;;17.66;100.00
57606;BME280;43430;48.204;11.556;2023-05-23T10:08:45;95918.31;;;17.77;100.00
57606;BME280;43430;48.204;11.556;2023-05-23T10:13:44;95901.22;;;17.98;100.00
57606;BME280;43430;48.204;11.556;2023-05-23T10:16:16;95901.69;;;18.21;100.00
57606;BME280;43430;48.204;11.556;2023-05-23T10:18:44;95897.63;;;18.34;100.00
57606;BME280;43430;48.204;11.556;2023-05-23T10:21:18;95897.09;;;18.37;100.00
57606;BME280;43430;48.204;11.556;2023-05-23T10:23:48;95894.88;;;18.54;100.00
57606;BME280;43430;48.204;11.556;2023-05-23T10:26:15;95887.78;;;18.34;100.00
57606;BME280;43430;48.204;11.556;2023-05-23T10:28:41;95897.16;;;18.21;100.00
57606;BME280;43430;48.204;11.556;2023-05-23T10:31:09;95893.41;;;18.22;100.00
57606;BME280;43430;48.204;11.556;2023-05-23T10:33:41;95900.41;;;17.98;100.00
57606;BME280;43430;48.204;11.556;2023-05-23T10:36:10;95902.56;;;17.91;100.00
57606;BME280;43430;48.204;11.556;2023-05-23T10:41:17;95891.09;;;17.90;100.00
57606;BME280;43430;48.204;11.556;2023-05-23T10:44:15;95879.34;;;18.07;100.00
57606;BME280;43430;48.204;11.556;2023-05-23T10:46:57;95874.91;;;18.46;100.00
57606;BME280;43430;48.204;11.556;2023-05-23T10:49:37;95865.50;;;19.09;100.00
57606;BME280;43430;48.204;11.556;2023-05-23T10:52:03;95859.34;;;19.42;100.00
57606;BME280;43430;48.204;11.556;2023-05-23T10:54:40;95845.63;;;19.20;100.00
57606;BME280;43430;48.204;11.556;2023-05-23T10:57:09;95841.25;;;19.68;100.00
57606;BME280;43430;48.204;11.556;2023-05-23T10:59:36;95840.63;;;19.42;100.00
57606;BME280;43430;48.204;11.556;2023-05-23T11:02:07;95836.75;;;19.59;100.00
57606;BME280;43430;48.204;11.556;2023-05-23T11:04:34;95843.16;;;19.58;100.00
57606;BME280;43430;48.204;11.556;2023-05-23T11:07:00;95847.06;;;19.41;100.00
57606;BME280;43430;48.204;11.556;2023-05-23T11:09:26;95840.69;;;19.37;100.00
57606;BME280;43430;48.204;11.556;2023-05-23T11:14:20;95836.94;;;19.38;100.00
57606;BME280;43430;48.204;11.556;2023-05-23T11:16:55;95835.34;;;19.37;100.00
57606;BME280;43430;48.204;11.556;2023-05-23T11:19:22;95826.56;;;19.32;100.00
57606;BME280;43430;48.204;11.556;2023-05-23T11:22:08;95825.59;;;19.52;100.00
57606;BME280;43430;48.204;11.556;2023-05-23T11:24:50;95824.56;;;20.01;100.00
57606;BME280;43430;48.204;11.556;2023-05-23T11:27:17;95821.66;;;19.97;100.00
57606;BME280;43430;48.204;11.556;2023-05-23T11:29:58;95819.03;;;19.92;100.00
57606;BME280;43430;48.204;11.556;2023-05-23T11:32:26;95817.88;;;19.74;100.00
57606;BME280;43430;48.204;11.556;2023-05-23T11:34:52;95814.66;;;19.77;100.00
57606;BME280;43430;48.204;11.556;2023-05-23T11:37:18;95822.53;;;19.92;100.00
57606;BME280;43430;48.204;11.556;2023-05-23T11:39:43;95816.47;;;20.06;100.00
57606;BME280;43430;48.204;11.556;2023-05-23T11:42:08;95820.06;;;20.20;100.00
57606;BME280;43430;48.204;11.556;2023-05-23T11:44:34;95814.25;;;20.13;100.00
57606;BME280;43430;48.204;11.556;2023-05-23T11:47:04;95811.53;;;19.94;100.00
57606;BME280;43430;48.204;11.556;2023-05-23T11:49:31;95817.19;;;20.35;100.00
57606;BME280;43430;48.204;11.556;2023-05-23T11:51:57;95803.19;;;20.62;100.00
57606;BME280;43430;48.204;11.556;2023-05-23T11:54:24;95805.44;;;20.74;100.00
57606;BME280;43430;48.204;11.556;2023-05-23T11:56:50;95799.94;;;20.66;100.00
57606;BME280;43430;48.204;11.556;2023-05-23T11:59:16;95804.81;;;20.21;100.00
57606;BME280;43430;48.204;11.556;2023-05-23T12:01:42;95809.81;;;20.27;100.00
57606;BME280;43430;48.204;11.556;2023-05-23T12:04:11;95801.56;;;20.43;100.00
57606;BME280;43430;48.204;11.556;2023-05-23T12:06:40;95791.97;;;20.79;100.00
57606;BME280;43430;48.204;11.556;2023-05-23T12:09:07;95795.22;;;20.76;100.00
57606;BME280;43430;48.204;11.556;2023-05-23T12:11:33;95797.66;;;20.92;100.00
57606;BME280;43430;48.204;11.556;2023-05-23T12:13:59;95790.06;;;20.99;100.00
57606;BME280;43430;48.204;11.556;2023-05-23T12:16:27;95790.06;;;21.31;100.00
57606;BME280;43430;48.204;11.556;2023-05-23T12:18:53;95804.50;;;20.65;100.00
57606;BME280;43430;48.204;11.556;2023-05-23T12:21:24;95808.75;;;20.23;100.00
57606;BME280;43430;48.204;11.556;2023-05-23T12:23:50;95818.75;;;19.94;100.00
57606;BME280;43430;48.204;11.556;2023-05-23T12:26:16;95813.34;;;19.75;100.00
57606;BME280;43430;48.204;11.556;2023-05-23T12:28:42;95821.13;;;19.71;100.00
57606;BME280;43430;48.204;11.556;2023-05-23T12:31:15;95811.88;;;19.87;100.00
57606;BME280;43430;48.204;11.556;2023-05-23T12:33:43;95812.53;;;20.22;100.00
57606;BME280;43430;48.204;11.556;2023-05-23T12:36:13;95809.59;;;20.43;100.00
57606;BME280;43430;48.204;11.556;2023-05-23T12:38:39;95806.97;;;20.61;100.00
57606;BME280;43430;48.204;11.556;2023-05-23T12:41:15;95796.97;;;20.67;100.00
57606;BME280;43430;48.204;11.556;2023-05-23T12:43:51;95807.38;;;20.88;100.00
57606;BME280;43430;48.204;11.556;2023-05-23T12:46:19;95799.63;;;20.48;100.00
57606;BME280;43430;48.204;11.556;2023-05-23T12:48:45;95826.13;;;20.07;100.00
57606;BME280;43430;48.204;11.556;2023-05-23T12:51:12;95825.84;;;19.50;100.00